Time;durP1;ratioP1;P1;durP2;ratioP2;P2;SDS_P1;SDS_P2;PMS_P1;PMS_P2;Temp;Humidity;BMP_temperature;BMP_pressure;BME280_temperature;BME280_humidity;BME280_pressure;Samples;Min_cycle;Max_cycle;Signal;HPM_P1;HPM_P2
2023/02/22 00:01:34;;;;;;;;;;;;;;;15.02;46.31;100786.06;4978179;28;100114;-68
2023/02/22 00:04:01;;;;;;;;;;;;;;;15.02;46.56;100785.28;4966917;28;97604;-68
2023/02/22 00:06:29;;;;;;;;;;;;;;;15.02;46.33;100788.78;4972581;28;97571;-67
2023/02/22 00:08:56;;;;;;;;;;;;;;;15.01;46.62;100778.19;4967999;28;97888;-68
2023/02/22 00:11:22;;;;;;;;;;;;;;;15.00;46.41;100782.81;4961443;28;98264;-68
2023/02/22 00:13:49;;;;;;;;;;;;;;;14.99;46.40;100781.22;4944055;28;97149;-68
2023/02/22 00:16:20;;;;;;;;;;;;;;;15.00;46.34;100779.31;4949173;28;97672;-67
2023/02/22 00:18:47;;;;;;;;;;;;;;;15.00;46.32;100779.31;4962465;28;97835;-67
2023/02/22 00:21:13;;;;;;;;;;;;;;;14.98;46.68;100782.31;4970866;28;97710;-68
2023/02/22 00:23:45;;;;;;;;;;;;;;;14.98;46.60;100788.56;4945843;28;98375;-68
2023/02/22 00:26:17;;;;;;;;;;;;;;;14.97;46.31;100777.97;4959590;28;97516;-67
2023/02/22 00:28:45;;;;;;;;;;;;;;;14.96;46.54;100782.59;4969075;28;99461;-68
2023/02/22 00:31:13;;;;;;;;;;;;;;;14.95;46.27;100778.28;4956461;28;97854;-67
2023/02/22 00:33:40;;;;;;;;;;;;;;;14.94;46.59;100784.00;4973166;28;97633;-67
2023/02/22 00:36:07;;;;;;;;;;;;;;;14.94;46.55;100784.00;4943185;28;98265;-70
2023/02/22 00:38:34;;;;;;;;;;;;;;;14.93;46.37;100779.66;4940698;28;97880;-68
2023/02/22 00:41:00;;;;;;;;;;;;;;;14.93;46.25;100776.94;4956542;28;99520;-68
2023/02/22 00:43:26;;;;;;;;;;;;;;;14.91;46.57;100779.94;4960380;28;97521;-68
2023/02/22 00:45:52;;;;;;;;;;;;;;;14.91;46.47;100784.56;4973914;28;98146;-67
2023/02/22 00:48:19;;;;;;;;;;;;;;;14.90;46.60;100789.19;4936423;28;98066;-68
2023/02/22 00:50:47;;;;;;;;;;;;;;;14.89;46.40;100787.56;4958262;28;99270;-68
2023/02/22 00:53:14;;;;;;;;;;;;;;;14.88;46.51;100788.66;4943375;28;98188;-68
2023/02/22 00:55:40;;;;;;;;;;;;;;;14.88;46.34;100785.94;4957659;28;97762;-68
2023/02/22 00:58:06;;;;;;;;;;;;;;;14.86;46.58;100782.72;4937414;28;98028;-69
2023/02/22 01:00:35;;;;;;;;;;;;;;;14.84;46.36;100782.19;4946547;28;97737;-67
2023/02/22 01:03:03;;;;;;;;;;;;;;;14.85;46.14;100783.81;4959655;28;97286;-70
2023/02/22 01:05:29;;;;;;;;;;;;;;;14.84;46.53;100784.09;4942465;28;97848;-68
2023/02/22 01:07:56;;;;;;;;;;;;;;;14.86;46.56;100777.31;4970809;28;97887;-69
2023/02/22 01:10:23;;;;;;;;;;;;;;;14.92;46.62;100773.41;4936455;28;97857;-69
2023/02/22 01:12:50;;;;;;;;;;;;;;;15.00;46.67;100782.03;4956983;28;97733;-67
2023/02/22 01:15:22;;;;;;;;;;;;;;;15.04;46.38;100773.00;4955532;28;97750;-68
2023/02/22 01:17:52;;;;;;;;;;;;;;;15.10;46.55;100781.91;4945435;28;98793;-68
2023/02/22 01:20:19;;;;;;;;;;;;;;;15.13;46.60;100787.59;4976227;28;97519;-68
2023/02/22 01:22:47;;;;;;;;;;;;;;;15.15;46.61;100782.66;4946912;28;97832;-69
2023/02/22 01:25:22;;;;;;;;;;;;;;;15.18;46.45;100778.56;4924260;28;97659;-68
2023/02/22 01:27:49;;;;;;;;;;;;;;;15.20;46.43;100776.34;4941433;28;100098;-69
2023/02/22 01:30:18;;;;;;;;;;;;;;;15.20;46.25;100779.88;4938545;28;98084;-69
2023/02/22 01:32:44;;;;;;;;;;;;;;;15.21;46.36;100777.97;4906019;28;97626;-68
2023/02/22 01:35:13;;;;;;;;;;;;;;;15.22;46.67;100777.69;4910877;28;97810;-68
2023/02/22 01:37:40;;;;;;;;;;;;;;;15.22;46.63;100774.16;4941311;28;99554;-68
2023/02/22 01:40:07;;;;;;;;;;;;;;;15.23;46.80;100781.19;4923644;28;97806;-68
2023/02/22 01:42:34;;;;;;;;;;;;;;;15.21;46.55;100778.78;4941543;28;98775;-68
2023/02/22 01:45:28;;;;;;;;;;;;;;;15.21;46.65;100776.06;4924781;28;98026;-68
2023/02/22 01:47:56;;;;;;;;;;;;;;;15.20;46.49;100781.78;4953889;28;97502;-67
2023/02/22 01:50:22;;;;;;;;;;;;;;;15.18;46.75;100768.50;4906047;28;97624;-67
2023/02/22 01:52:48;;;;;;;;;;;;;;;15.19;46.67;100778.25;4937889;28;97591;-69
2023/02/22 01:55:14;;;;;;;;;;;;;;;15.17;46.42;100780.47;4919448;28;97429;-67
2023/02/22 01:57:41;;;;;;;;;;;;;;;15.17;46.46;100776.94;4940218;28;99425;-68
2023/02/22 02:00:10;;;;;;;;;;;;;;;15.15;46.44;100782.66;4945060;28;97698;-68
2023/02/22 02:02:42;;;;;;;;;;;;;;;15.14;46.51;100772.91;4922585;28;97624;-68
2023/02/22 02:05:09;;;;;;;;;;;;;;;15.14;46.55;100769.38;4922235;28;97918;-68
2023/02/22 02:07:36;;;;;;;;;;;;;;;15.11;46.55;100768.03;4908885;28;99319;-69
2023/02/22 02:10:04;;;;;;;;;;;;;;;15.10;46.66;100766.44;4924324;28;98271;-67
2023/02/22 02:12:32;;;;;;;;;;;;;;;15.10;46.65;100762.91;4907137;28;97779;-68
2023/02/22 02:15:24;;;;;;;;;;;;;;;15.07;46.69;100763.50;4907911;28;97545;-68
2023/02/22 02:17:52;;;;;;;;;;;;;;;15.05;46.37;100765.66;4934095;28;97620;-67
2023/02/22 02:20:48;;;;;;;;;;;;;;;15.04;46.76;100764.88;4915672;28;97785;-68
2023/02/22 02:23:35;;;;;;;;;;;;;;;15.03;46.64;100762.44;4941138;28;97721;-68
2023/02/22 02:26:28;;;;;;;;;;;;;;;15.01;46.33;100760.00;4957497;28;97863;-67
2023/02/22 02:29:08;;;;;;;;;;;;;;;15.00;46.71;100763.03;4928917;28;98624;-68
2023/02/22 02:32:06;;;;;;;;;;;;;;;14.98;46.64;100761.41;4954682;28;97659;-66
2023/02/22 02:35:04;;;;;;;;;;;;;;;14.97;46.25;100751.66;4955451;28;97771;-69
2023/02/22 02:37:35;;;;;;;;;;;;;;;14.95;46.76;100753.03;4940083;28;99365;-67
2023/02/22 02:40:23;;;;;;;;;;;;;;;14.94;46.36;100751.44;4930661;28;98250;-67
2023/02/22 02:43:09;;;;;;;;;;;;;;;14.92;46.48;100757.13;4929989;28;97955;-67
2023/02/22 02:45:40;;;;;;;;;;;;;;;14.90;46.42;100753.91;4957297;28;97962;-67
2023/02/22 02:48:08;;;;;;;;;;;;;;;14.90;46.63;100755.81;4926577;28;97724;-67
2023/02/22 02:50:40;;;;;;;;;;;;;;;14.89;46.40;100754.19;4933414;28;97830;-67
2023/02/22 02:53:07;;;;;;;;;;;;;;;14.87;46.51;100750.97;4940002;28;97785;-67
2023/02/22 02:55:35;;;;;;;;;;;;;;;14.89;46.58;100756.91;4939512;28;99005;-70
2023/02/22 02:58:04;;;;;;;;;;;;;;;14.88;46.45;100752.56;4920017;28;97786;-67
2023/02/22 03:00:38;;;;;;;;;;;;;;;14.86;46.63;100750.16;4923022;28;97978;-67
2023/02/22 03:03:15;;;;;;;;;;;;;;;14.85;46.65;100750.44;4935377;28;97794;-67
2023/02/22 03:05:53;;;;;;;;;;;;;;;14.84;46.83;100757.78;4952542;28;100394;-67
2023/02/22 03:08:47;;;;;;;;;;;;;;;14.82;46.41;100749.13;4952489;28;97692;-67
2023/02/22 03:11:18;;;;;;;;;;;;;;;14.82;46.62;100745.59;4941459;28;97694;-68
2023/02/22 03:14:02;;;;;;;;;;;;;;;14.80;46.67;100745.06;4939749;28;98361;-68
2023/02/22 03:16:49;;;;;;;;;;;;;;;14.79;46.35;100738.84;4955250;28;98899;-68
2023/02/22 03:19:23;;;;;;;;;;;;;;;14.78;46.33;100742.66;4938444;28;98000;-68
2023/02/22 03:22:10;;;;;;;;;;;;;;;14.78;46.44;100745.38;4948658;28;97866;-68
2023/02/22 03:25:05;;;;;;;;;;;;;;;14.77;46.69;100743.72;4953921;28;98260;-68
2023/02/22 03:27:36;;;;;;;;;;;;;;;14.75;46.34;100743.22;4968037;28;98840;-68
2023/02/22 03:30:06;;;;;;;;;;;;;;;14.72;46.43;100744.59;4952183;28;97892;-68
2023/02/22 03:32:38;;;;;;;;;;;;;;;14.72;46.76;100743.78;4936990;28;97732;-68
2023/02/22 03:35:09;;;;;;;;;;;;;;;14.71;46.54;100747.63;4925826;28;97963;-67
2023/02/22 03:37:38;;;;;;;;;;;;;;;14.70;46.49;100737.88;4941965;28;97661;-68
2023/02/22 03:40:12;;;;;;;;;;;;;;;14.69;46.69;100747.06;4927240;28;97644;-68
2023/02/22 03:42:45;;;;;;;;;;;;;;;14.67;46.64;100744.66;4943575;28;99616;-67
2023/02/22 03:45:12;;;;;;;;;;;;;;;14.67;46.79;100746.56;4925374;28;97657;-68
2023/02/22 03:47:45;;;;;;;;;;;;;;;14.68;46.64;100742.75;4922184;28;98795;-67
2023/02/22 03:50:19;;;;;;;;;;;;;;;14.66;46.42;100740.34;4925716;28;97484;-68
2023/02/22 03:52:46;;;;;;;;;;;;;;;14.65;46.64;100741.41;4928000;28;100234;-68
2023/02/22 03:55:14;;;;;;;;;;;;;;;14.65;46.72;100741.41;4922661;28;98810;-68
2023/02/22 03:57:44;;;;;;;;;;;;;;;14.64;46.59;100747.13;4945028;28;97533;-67
2023/02/22 04:00:13;;;;;;;;;;;;;;;14.63;46.42;100743.63;4941124;28;97888;-67
2023/02/22 04:02:40;;;;;;;;;;;;;;;14.63;46.73;100738.19;4958020;28;97748;-67
2023/02/22 04:05:06;;;;;;;;;;;;;;;14.63;46.65;100740.09;4938071;28;98179;-67
2023/02/22 04:07:32;;;;;;;;;;;;;;;14.61;46.68;100740.38;4920654;28;98060;-69
2023/02/22 04:10:01;;;;;;;;;;;;;;;14.62;46.37;100741.19;4942963;28;98854;-68
2023/02/22 04:12:28;;;;;;;;;;;;;;;14.61;46.60;100742.28;4936801;28;97974;-68
2023/02/22 04:14:54;;;;;;;;;;;;;;;14.60;46.26;100744.19;4936593;28;98056;-67
2023/02/22 04:17:21;;;;;;;;;;;;;;;14.60;46.29;100738.75;4940535;28;98966;-68
2023/02/22 04:19:47;;;;;;;;;;;;;;;14.60;46.51;100735.25;4940671;28;97968;-68
2023/02/22 04:22:14;;;;;;;;;;;;;;;14.59;46.48;100741.78;4941429;27;97915;-67
2023/02/22 04:24:41;;;;;;;;;;;;;;;14.59;46.54;100745.28;4962190;28;97566;-68
2023/02/22 04:27:07;;;;;;;;;;;;;;;14.58;46.64;100732.84;4948797;28;98705;-68
2023/02/22 04:29:34;;;;;;;;;;;;;;;14.58;46.63;100735.53;4963482;28;100346;-68
2023/02/22 04:32:00;;;;;;;;;;;;;;;14.58;46.74;100740.97;4946014;28;97854;-68
2023/02/22 04:34:26;;;;;;;;;;;;;;;14.57;46.51;100739.34;4963849;28;99927;-68
2023/02/22 04:36:53;;;;;;;;;;;;;;;14.57;46.75;100733.09;4945984;28;97582;-68
2023/02/22 04:39:19;;;;;;;;;;;;;;;14.58;46.50;100734.72;4978749;28;97873;-67
2023/02/22 04:41:46;;;;;;;;;;;;;;;14.57;46.59;100742.03;4947020;28;97827;-68
2023/02/22 04:44:12;;;;;;;;;;;;;;;14.56;46.40;100735.00;4959356;28;97922;-68
2023/02/22 04:46:42;;;;;;;;;;;;;;;14.55;46.58;100735.31;4967537;28;97859;-68
2023/02/22 04:49:08;;;;;;;;;;;;;;;14.56;46.66;100734.22;4960832;28;97670;-68
2023/02/22 04:51:35;;;;;;;;;;;;;;;14.56;46.73;100736.91;4964034;28;97671;-68
2023/02/22 04:54:02;;;;;;;;;;;;;;;14.55;46.72;100725.25;4948780;28;98154;-68
2023/02/22 04:56:28;;;;;;;;;;;;;;;14.55;46.79;100729.88;4960508;28;97740;-68
2023/02/22 04:58:54;;;;;;;;;;;;;;;14.54;46.42;100726.38;4962007;28;97520;-68
2023/02/22 05:01:22;;;;;;;;;;;;;;;14.55;46.37;100727.16;4947955;28;97930;-69
2023/02/22 05:03:48;;;;;;;;;;;;;;;14.55;46.71;100727.16;4961601;28;98042;-69
2023/02/22 05:06:17;;;;;;;;;;;;;;;14.54;46.63;100729.09;4946002;28;97985;-69
2023/02/22 05:08:44;;;;;;;;;;;;;;;14.54;46.56;100725.53;4962936;28;97807;-69
2023/02/22 05:11:10;;;;;;;;;;;;;;;14.54;46.65;100717.41;4965880;28;97846;-69
2023/02/22 05:13:36;;;;;;;;;;;;;;;14.54;46.35;100720.09;4965298;28;97547;-69
2023/02/22 05:16:03;;;;;;;;;;;;;;;14.53;46.67;100713.06;4975864;28;97830;-69
2023/02/22 05:18:30;;;;;;;;;;;;;;;14.53;46.60;100716.59;4961350;28;97606;-69
2023/02/22 05:20:56;;;;;;;;;;;;;;;14.52;46.40;100714.19;4958625;28;97790;-69
2023/02/22 05:23:23;;;;;;;;;;;;;;;14.52;46.64;100719.59;4957739;28;99445;-69
2023/02/22 05:25:50;;;;;;;;;;;;;;;14.52;46.45;100716.88;4956272;28;97889;-69
2023/02/22 05:28:16;;;;;;;;;;;;;;;14.49;46.60;100708.22;4944505;28;98061;-69
2023/02/22 05:30:42;;;;;;;;;;;;;;;14.49;46.79;100713.66;4939991;28;99827;-69
2023/02/22 05:33:09;;;;;;;;;;;;;;;14.48;46.77;100714.72;4916495;28;99657;-68
2023/02/22 05:35:37;;;;;;;;;;;;;;;14.47;46.63;100707.69;4909041;28;98419;-68
2023/02/22 05:38:04;;;;;;;;;;;;;;;14.47;46.69;100706.88;4925167;28;98364;-69
2023/02/22 05:40:31;;;;;;;;;;;;;;;14.47;46.52;100701.47;4909133;28;98731;-68
2023/02/22 05:42:57;;;;;;;;;;;;;;;14.46;46.35;100707.94;4923932;28;98178;-69
2023/02/22 05:45:25;;;;;;;;;;;;;;;14.46;46.76;100707.94;4907599;28;98226;-69
2023/02/22 05:47:51;;;;;;;;;;;;;;;14.45;46.49;100715.28;4949952;28;98428;-69
2023/02/22 05:50:18;;;;;;;;;;;;;;;14.43;46.36;100712.06;4928787;28;98878;-68
2023/02/22 05:52:46;;;;;;;;;;;;;;;14.45;46.46;100718.00;4911613;28;98131;-69
2023/02/22 05:55:13;;;;;;;;;;;;;;;14.44;46.50;100716.38;4913810;28;99213;-69
2023/02/22 05:57:40;;;;;;;;;;;;;;;14.45;46.59;100722.63;4924024;28;98198;-68
2023/02/22 06:00:07;;;;;;;;;;;;;;;14.44;46.47;100724.53;4912697;28;98238;-69
2023/02/22 06:02:34;;;;;;;;;;;;;;;14.44;46.51;100724.53;4906026;28;97953;-68
2023/02/22 06:05:00;;;;;;;;;;;;;;;14.44;46.56;100719.09;4938185;28;98124;-68
2023/02/22 06:07:26;;;;;;;;;;;;;;;14.44;46.67;100729.94;4923806;28;98134;-70
2023/02/22 06:09:53;;;;;;;;;;;;;;;14.44;46.63;100729.94;4915386;28;97931;-69
2023/02/22 06:12:20;;;;;;;;;;;;;;;14.45;46.61;100726.13;4925531;28;98503;-69
2023/02/22 06:14:46;;;;;;;;;;;;;;;14.45;46.58;100728.03;4945261;28;97830;-69
2023/02/22 06:17:13;;;;;;;;;;;;;;;14.46;46.40;100729.66;4909903;28;98445;-70
2023/02/22 06:19:40;;;;;;;;;;;;;;;14.46;46.62;100730.47;4921479;28;98546;-68
2023/02/22 06:22:07;;;;;;;;;;;;;;;14.46;46.34;100733.19;4907181;28;98529;-68
2023/02/22 06:24:33;;;;;;;;;;;;;;;14.47;46.27;100736.72;4938289;28;99234;-70
2023/02/22 06:27:00;;;;;;;;;;;;;;;14.47;46.39;100732.09;4927100;28;98207;-69
2023/02/22 06:29:27;;;;;;;;;;;;;;;14.48;46.76;100738.31;4939484;28;101686;-68
2023/02/22 06:31:53;;;;;;;;;;;;;;;14.50;46.35;100738.84;4928186;28;99944;-69
2023/02/22 06:34:23;;;;;;;;;;;;;;;14.51;46.52;100732.34;4925210;28;98104;-67
2023/02/22 06:36:49;;;;;;;;;;;;;;;14.52;46.60;100742.09;4912929;28;98007;-67
2023/02/22 06:39:16;;;;;;;;;;;;;;;14.54;46.31;100741.81;4924326;28;99727;-67
2023/02/22 06:41:42;;;;;;;;;;;;;;;14.55;46.32;100738.81;4938427;28;100365;-68
2023/02/22 06:44:10;;;;;;;;;;;;;;;14.56;46.24;100750.47;4936769;28;98072;-67
2023/02/22 06:46:36;;;;;;;;;;;;;;;14.56;46.48;100745.88;4911700;28;97918;-67
2023/02/22 06:49:03;;;;;;;;;;;;;;;14.58;46.24;100745.56;4913385;28;98030;-68
2023/02/22 06:51:29;;;;;;;;;;;;;;;14.59;46.21;100750.72;4910051;28;98142;-67
2023/02/22 06:53:56;;;;;;;;;;;;;;;14.60;46.41;100752.31;4906777;28;98038;-68
2023/02/22 06:56:22;;;;;;;;;;;;;;;14.64;46.26;100755.28;4927449;28;98130;-67
2023/02/22 06:58:48;;;;;;;;;;;;;;;14.65;46.20;100748.75;4927405;28;98203;-68
2023/02/22 07:01:15;;;;;;;;;;;;;;;14.66;46.54;100758.53;4937367;28;98173;-67
2023/02/22 07:03:41;;;;;;;;;;;;;;;14.67;46.26;100766.38;4911808;28;97910;-67
2023/02/22 07:06:09;;;;;;;;;;;;;;;14.69;46.50;100761.44;4925950;28;97935;-68
2023/02/22 07:08:36;;;;;;;;;;;;;;;14.70;46.56;100762.28;4944235;28;98248;-68
2023/02/22 07:11:03;;;;;;;;;;;;;;;14.71;46.47;100764.69;4912384;28;98223;-68
2023/02/22 07:13:30;;;;;;;;;;;;;;;14.73;46.35;100770.63;4944010;28;98183;-68
2023/02/22 07:15:56;;;;;;;;;;;;;;;14.75;46.44;100764.13;4922509;28;98068;-68
2023/02/22 07:18:23;;;;;;;;;;;;;;;14.76;46.48;100771.16;4940962;28;98057;-67
2023/02/22 07:20:50;;;;;;;;;;;;;;;14.77;46.56;100770.88;4939029;28;100933;-68
2023/02/22 07:23:17;;;;;;;;;;;;;;;14.79;46.19;100776.81;4911274;28;99118;-68
2023/02/22 07:25:43;;;;;;;;;;;;;;;14.79;46.14;100776.81;4914199;28;98182;-67
2023/02/22 07:28:10;;;;;;;;;;;;;;;14.82;46.37;100772.75;4924931;28;98566;-67
2023/02/22 07:30:36;;;;;;;;;;;;;;;14.84;46.35;100775.97;4924491;28;98246;-68
2023/02/22 07:33:05;;;;;;;;;;;;;;;14.85;46.23;100778.38;4913342;28;98330;-67
2023/02/22 07:35:57;;;;;;;;;;;;;;;14.87;46.52;100784.34;4941496;28;97948;-67
2023/02/22 07:38:23;;;;;;;;;;;;;;;14.88;46.18;100780.53;4944739;28;99731;-67
2023/02/22 07:40:50;;;;;;;;;;;;;;;14.90;46.33;100778.34;4929606;28;98392;-67
2023/02/22 07:43:18;;;;;;;;;;;;;;;14.92;46.14;100778.84;4922759;28;98330;-67
2023/02/22 07:45:45;;;;;;;;;;;;;;;14.95;46.34;100786.41;4923811;28;98227;-68
2023/02/22 07:48:11;;;;;;;;;;;;;;;14.98;46.36;100783.13;4914591;28;98160;-68
2023/02/22 07:50:37;;;;;;;;;;;;;;;15.00;46.22;100782.81;4907993;28;99318;-68
2023/02/22 07:53:06;;;;;;;;;;;;;;;15.01;46.08;100781.72;4910135;28;98189;-69
2023/02/22 07:55:33;;;;;;;;;;;;;;;15.03;46.41;100776.81;4920613;28;98708;-69
2023/02/22 07:58:00;;;;;;;;;;;;;;;15.05;46.21;100774.66;4922251;28;98073;-67
2023/02/22 08:00:28;;;;;;;;;;;;;;;15.08;46.08;100773.25;4902619;28;99675;-67
2023/02/22 08:02:55;;;;;;;;;;;;;;;15.10;46.18;100779.19;4938667;28;98003;-68
2023/02/22 08:05:22;;;;;;;;;;;;;;;15.12;46.03;100777.00;4902775;28;98373;-67
2023/02/22 08:07:49;;;;;;;;;;;;;;;15.14;46.18;100778.31;4904938;28;99453;-67
2023/02/22 08:10:17;;;;;;;;;;;;;;;15.16;46.18;100778.84;4921520;28;98319;-67
2023/02/22 08:12:43;;;;;;;;;;;;;;;15.19;46.29;100782.88;4923505;28;98029;-68
2023/02/22 08:15:14;;;;;;;;;;;;;;;15.19;46.29;100772.81;4918114;28;97944;-68
2023/02/22 08:17:40;;;;;;;;;;;;;;;15.22;46.21;100771.44;4927053;28;98180;-67
2023/02/22 08:20:07;;;;;;;;;;;;;;;15.23;46.37;100776.56;4921482;28;98012;-67
2023/02/22 08:22:34;;;;;;;;;;;;;;;15.25;46.10;100773.59;4918285;28;98445;-67
2023/02/22 08:25:00;;;;;;;;;;;;;;;15.28;46.15;100766.75;4903658;28;98146;-67
2023/02/22 08:27:28;;;;;;;;;;;;;;;15.31;46.41;100766.97;4901923;28;98067;-68
2023/02/22 08:29:54;;;;;;;;;;;;;;;15.34;46.01;100771.03;4918843;28;98098;-67
2023/02/22 08:32:21;;;;;;;;;;;;;;;15.36;46.03;100774.25;4904459;28;98197;-69
2023/02/22 08:34:47;;;;;;;;;;;;;;;15.38;46.09;100764.72;4904370;28;97980;-67
2023/02/22 08:37:14;;;;;;;;;;;;;;;15.40;46.17;100770.66;4921312;28;100519;-68
2023/02/22 08:39:41;;;;;;;;;;;;;;;15.43;46.14;100777.41;4918422;28;98031;-69
2023/02/22 08:42:08;;;;;;;;;;;;;;;15.44;45.97;100771.72;4901236;28;97953;-68
2023/02/22 08:44:35;;;;;;;;;;;;;;;15.48;45.90;100771.91;4904591;28;98249;-69
2023/02/22 08:47:01;;;;;;;;;;;;;;;15.50;46.13;100775.16;4890857;28;111880;-67
2023/02/22 08:49:29;;;;;;;;;;;;;;;15.53;46.03;100765.63;4918964;28;99493;-68
2023/02/22 08:51:55;;;;;;;;;;;;;;;15.56;45.99;100765.84;4919173;28;98945;-68
2023/02/22 08:54:21;;;;;;;;;;;;;;;15.58;46.04;100765.53;4907167;28;99433;-68
2023/02/22 08:56:48;;;;;;;;;;;;;;;15.59;45.89;100759.81;4901552;28;98344;-68
2023/02/22 08:59:15;;;;;;;;;;;;;;;15.65;45.93;100768.72;4903197;28;98421;-69
2023/02/22 09:01:41;;;;;;;;;;;;;;;15.66;45.90;100770.34;4920235;28;98041;-69
2023/02/22 09:04:08;;;;;;;;;;;;;;;15.68;46.04;100766.25;4920910;28;98598;-69
2023/02/22 09:06:34;;;;;;;;;;;;;;;15.73;46.06;100767.25;4919481;28;98177;-68
2023/02/22 09:09:01;;;;;;;;;;;;;;;15.78;46.02;100761.75;4920383;28;98207;-69
2023/02/22 09:11:27;;;;;;;;;;;;;;;15.83;45.96;100764.38;4903626;28;99542;-68
2023/02/22 09:13:54;;;;;;;;;;;;;;;15.89;45.96;100755.84;4904132;28;98159;-68
2023/02/22 09:16:21;;;;;;;;;;;;;;;15.97;45.75;100757.09;4902784;28;98313;-69
2023/02/22 09:18:47;;;;;;;;;;;;;;;16.05;45.63;100755.63;4902072;28;99219;-67
2023/02/22 09:21:13;;;;;;;;;;;;;;;16.11;45.61;100749.81;4904532;28;98150;-68
2023/02/22 09:23:40;;;;;;;;;;;;;;;16.18;45.75;100750.22;4937586;28;97948;-69
2023/02/22 09:26:08;;;;;;;;;;;;;;;16.26;45.67;100750.63;4904225;28;98043;-68
2023/02/22 09:28:34;;;;;;;;;;;;;;;16.34;45.52;100755.41;4903393;28;97989;-69
2023/02/22 09:31:01;;;;;;;;;;;;;;;16.42;45.63;100754.69;4889875;28;98291;-67
2023/02/22 09:33:28;;;;;;;;;;;;;;;16.51;45.49;100744.75;4886997;28;98227;-67
2023/02/22 09:35:55;;;;;;;;;;;;;;;16.62;45.38;100748.09;4887837;28;98139;-68
2023/02/22 09:38:23;;;;;;;;;;;;;;;16.68;45.32;100742.25;4887168;28;98873;-67
2023/02/22 09:41:13;;;;;;;;;;;;;;;16.76;45.28;100743.50;4903471;28;98008;-67
2023/02/22 09:43:48;;;;;;;;;;;;;;;16.85;45.21;100743.59;4898670;28;98066;-68
2023/02/22 09:46:36;;;;;;;;;;;;;;;16.90;45.32;100743.50;4899467;28;98426;-68
2023/02/22 09:49:14;;;;;;;;;;;;;;;16.95;45.41;100742.59;4899908;28;98082;-68
2023/02/22 09:52:10;;;;;;;;;;;;;;;17.00;45.28;100747.94;4930890;28;98145;-69
2023/02/22 09:54:36;;;;;;;;;;;;;;;17.04;45.47;100743.50;4906788;28;98658;-68
2023/02/22 09:57:05;;;;;;;;;;;;;;;17.06;45.11;100739.38;4931849;28;98079;-68
2023/02/22 09:59:36;;;;;;;;;;;;;;;17.09;45.22;100744.19;4886955;28;97988;-68
2023/02/22 10:02:13;;;;;;;;;;;;;;;17.12;45.41;100738.13;4884078;28;98161;-68
2023/02/22 10:05:00;;;;;;;;;;;;;;;17.15;45.42;100740.25;4932119;28;97927;-68
2023/02/22 10:07:42;;;;;;;;;;;;;;;17.17;45.30;100729.03;4918776;28;98033;-69
2023/02/22 10:10:17;;;;;;;;;;;;;;;17.22;45.38;100733.59;4886621;28;98182;-69
2023/02/22 10:13:01;;;;;;;;;;;;;;;17.25;45.24;100735.69;4902480;28;97835;-68
2023/02/22 10:15:36;;;;;;;;;;;;;;;17.27;45.45;100728.84;4919075;28;98027;-68
2023/02/22 10:18:42;;;;;;;;;;;;;;;17.29;45.28;100732.06;4902192;28;98772;-69
2023/02/22 10:21:35;;;;;;;;;;;;;;;17.31;45.20;100729.84;4921846;28;100051;-70
2023/02/22 10:24:26;;;;;;;;;;;;;;;17.36;45.22;100723.47;4918369;28;97976;-69
2023/02/22 10:26:52;;;;;;;;;;;;;;;17.40;45.29;100724.47;4922172;28;97992;-68
2023/02/22 10:29:32;;;;;;;;;;;;;;;17.42;45.25;100728.50;4881351;28;98013;-67
2023/02/22 10:32:00;;;;;;;;;;;;;;;17.44;45.34;100728.19;4913094;28;98117;-68
2023/02/22 10:34:29;;;;;;;;;;;;;;;17.47;45.25;100726.78;4884284;28;98974;-68
2023/02/22 10:37:24;;;;;;;;;;;;;;;17.48;45.29;100715.56;4902939;28;98123;-67
2023/02/22 10:40:12;;;;;;;;;;;;;;;17.51;45.35;100714.94;4884393;28;98297;-68
2023/02/22 10:42:38;;;;;;;;;;;;;;;17.56;45.26;100708.56;4896053;28;99061;-68
2023/02/22 10:45:13;;;;;;;;;;;;;;;17.59;45.45;100713.41;4900513;28;98169;-68
2023/02/22 10:47:39;;;;;;;;;;;;;;;17.62;45.30;100701.91;4901577;28;98210;-68
2023/02/22 10:50:05;;;;;;;;;;;;;;;17.65;45.42;100706.75;4882128;28;97968;-68
2023/02/22 10:52:33;;;;;;;;;;;;;;;17.70;45.38;100711.25;4894784;28;98258;-69
2023/02/22 10:55:00;;;;;;;;;;;;;;;17.70;45.21;100709.34;4878733;28;98184;-69
2023/02/22 10:57:31;;;;;;;;;;;;;;;17.74;45.37;100707.59;4898982;28;98383;-69
2023/02/22 11:00:12;;;;;;;;;;;;;;;17.77;45.47;100703.50;4913039;28;100210;-68
2023/02/22 11:02:39;;;;;;;;;;;;;;;17.79;45.40;100707.50;4886153;28;98105;-68
2023/02/22 11:05:05;;;;;;;;;;;;;;;17.80;45.20;100706.41;4887089;28;98169;-68
2023/02/22 11:07:34;;;;;;;;;;;;;;;17.84;45.48;100706.56;4884760;28;98891;-68
2023/02/22 11:10:05;;;;;;;;;;;;;;;17.86;45.32;100699.69;4885323;28;98046;-70
2023/02/22 11:12:36;;;;;;;;;;;;;;;17.88;45.38;100694.75;4912107;28;98306;-69
2023/02/22 11:15:32;;;;;;;;;;;;;;;17.95;45.23;100701.69;4915989;28;98401;-69
2023/02/22 11:18:00;;;;;;;;;;;;;;;17.99;45.13;100689.81;4891589;28;98315;-68
2023/02/22 11:20:33;;;;;;;;;;;;;;;18.06;45.15;100692.13;4895449;28;98830;-69
2023/02/22 11:23:01;;;;;;;;;;;;;;;18.11;45.25;100684.59;4907434;28;98029;-68
2023/02/22 11:25:38;;;;;;;;;;;;;;;18.18;45.18;100688.81;4906391;28;98253;-69
2023/02/22 11:28:19;;;;;;;;;;;;;;;18.19;45.22;100683.03;4925520;28;98069;-68
2023/02/22 11:30:48;;;;;;;;;;;;;;;18.25;45.04;100690.00;4936944;28;98386;-68
2023/02/22 11:33:22;;;;;;;;;;;;;;;18.29;45.09;100684.72;4899236;28;100305;-69
2023/02/22 11:35:59;;;;;;;;;;;;;;;18.31;45.21;100686.03;4922138;28;98358;-68
2023/02/22 11:38:32;;;;;;;;;;;;;;;18.32;45.27;100679.44;4905500;28;98251;-68
2023/02/22 11:41:23;;;;;;;;;;;;;;;18.34;45.27;100685.38;4921076;28;100641;-69
2023/02/22 11:43:51;;;;;;;;;;;;;;;18.39;45.21;100677.06;4924185;28;98242;-69
2023/02/22 11:46:21;;;;;;;;;;;;;;;18.41;45.08;100668.56;4905471;28;98243;-68
2023/02/22 11:48:56;;;;;;;;;;;;;;;18.40;45.41;100675.94;4952139;28;98106;-68
2023/02/22 11:51:43;;;;;;;;;;;;;;;18.42;45.20;100672.88;4939913;28;100095;-68
2023/02/22 11:54:30;;;;;;;;;;;;;;;18.41;45.29;100674.00;4911154;28;98022;-69
2023/02/22 11:57:09;;;;;;;;;;;;;;;18.38;45.38;100674.63;4919077;28;98931;-68
2023/02/22 11:59:42;;;;;;;;;;;;;;;18.34;45.43;100671.72;4909808;28;97801;-68
2023/02/22 12:02:17;;;;;;;;;;;;;;;18.34;45.56;100668.19;4905280;28;98000;-68
2023/02/22 12:04:46;;;;;;;;;;;;;;;18.31;45.37;100675.09;4956294;28;99061;-68
2023/02/22 12:07:47;;;;;;;;;;;;;;;18.30;45.62;100675.41;4943110;28;98771;-68
2023/02/22 12:10:25;;;;;;;;;;;;;;;18.28;45.51;100666.75;4943351;28;98061;-69
2023/02/22 12:13:17;;;;;;;;;;;;;;;18.30;45.37;100664.50;4912394;28;97910;-68
2023/02/22 12:16:02;;;;;;;;;;;;;;;18.35;45.46;100658.88;4939757;28;98095;-69
2023/02/22 12:18:44;;;;;;;;;;;;;;;18.41;45.49;100657.63;4941980;28;98033;-68
2023/02/22 12:21:15;;;;;;;;;;;;;;;18.47;45.21;100661.03;4926476;28;98053;-68
2023/02/22 12:24:01;;;;;;;;;;;;;;;18.49;45.25;100656.88;4925419;28;99487;-68
2023/02/22 12:26:31;;;;;;;;;;;;;;;18.53;45.45;100657.03;4908296;28;98545;-69
2023/02/22 12:29:23;;;;;;;;;;;;;;;18.57;45.15;100653.34;4941205;28;99719;-69
2023/02/22 12:31:59;;;;;;;;;;;;;;;18.62;45.33;100644.22;4944453;28;98081;-68
2023/02/22 12:34:37;;;;;;;;;;;;;;;18.67;45.21;100652.28;4909663;28;98155;-69
2023/02/22 12:37:23;;;;;;;;;;;;;;;18.72;45.31;100654.09;4936724;28;98797;-68
2023/02/22 12:39:52;;;;;;;;;;;;;;;18.76;45.18;100644.13;4944125;28;98386;-68
2023/02/22 12:42:28;;;;;;;;;;;;;;;18.79;45.21;100638.84;4929326;28;99691;-69
2023/02/22 12:45:05;;;;;;;;;;;;;;;18.82;45.25;100637.38;4943016;28;98153;-69
2023/02/22 12:47:36;;;;;;;;;;;;;;;18.86;45.14;100644.66;4925867;28;99670;-69
2023/02/22 12:50:22;;;;;;;;;;;;;;;18.93;45.12;100640.63;4925507;28;98169;-69
2023/02/22 12:53:11;;;;;;;;;;;;;;;19.02;45.08;100641.44;4941694;28;99961;-68
2023/02/22 12:55:46;;;;;;;;;;;;;;;19.09;45.02;100636.31;4925664;28;98971;-68